Time;durP1;ratioP1;P1;durP2;ratioP2;P2;SDS_P1;SDS_P2;PMS_P1;PMS_P2;Temp;Humidity;BMP_temperature;BMP_pressure;BME280_temperature;BME280_humidity;BME280_pressure;Samples;Min_cycle;Max_cycle;Signal;HPM_P1;HPM_P2
2023/07/02 00:00:43;;;;;;;24.48;14.68;;;;;;;25.48;60.60;100451.34;6227878;22;20722;-81
2023/07/02 00:03:11;;;;;;;24.48;15.20;;;;;;;25.50;61.14;100448.38;6215891;22;20059;-81
2023/07/02 00:05:38;;;;;;;24.77;15.77;;;;;;;25.16;60.72;100393.81;6211569;22;20022;-80
2023/07/02 00:08:12;;;;;;;24.35;14.27;;;;;;;25.41;60.44;100434.31;6211224;22;20441;-82
2023/07/02 00:10:51;;;;;;;26.33;14.77;;;;;;;25.15;60.60;100403.06;6225523;22;20299;-82
2023/07/02 00:13:21;;;;;;;23.70;14.98;;;;;;;25.37;60.70;100433.19;6192393;22;20043;-81
2023/07/02 00:15:52;;;;;;;24.75;15.27;;;;;;;25.21;60.65;100415.69;6172212;22;20529;-81
2023/07/02 00:18:19;;;;;;;21.70;14.18;;;;;;;25.22;61.29;100414.66;6215861;22;20024;-83
2023/07/02 00:20:46;;;;;;;23.80;14.52;;;;;;;24.95;61.02;100366.22;6213412;22;20050;-82
2023/07/02 00:23:13;;;;;;;30.02;14.85;;;;;;;25.26;60.74;100415.81;6225344;22;20095;-81
2023/07/02 00:25:40;;;;;;;21.80;13.90;;;;;;;25.29;61.08;100423.50;6210739;22;20019;-82
2023/07/02 00:28:10;;;;;;;22.00;13.50;;;;;;;25.34;60.67;100428.19;6222980;22;20016;-80
2023/07/02 00:30:36;;;;;;;27.42;14.35;;;;;;;25.13;60.90;100403.28;6213759;22;20424;-81
2023/07/02 00:33:07;;;;;;;25.95;14.52;;;;;;;25.30;60.92;100444.16;6217892;22;20018;-81
2023/07/02 00:35:33;;;;;;;25.90;14.88;;;;;;;25.25;60.74;100427.75;6221495;22;20427;-81
2023/07/02 00:38:00;;;;;;;22.33;14.15;;;;;;;25.04;61.00;100406.59;6177257;22;20536;-80
2023/07/02 00:40:27;;;;;;;21.50;14.20;;;;;;;24.23;61.11;100282.28;6208084;22;20496;-80
2023/07/02 00:42:54;;;;;;;26.15;14.70;;;;;;;24.94;61.05;100397.13;6183819;22;20089;-81
2023/07/02 00:45:21;;;;;;;22.23;14.10;;;;;;;25.01;61.37;100417.94;6213205;22;20027;-82
2023/07/02 00:47:48;;;;;;;21.13;13.15;;;;;;;25.05;61.44;100433.53;6188565;22;20090;-81
2023/07/02 00:50:15;;;;;;;26.08;14.32;;;;;;;24.90;61.33;100416.84;6201207;22;20015;-80
2023/07/02 00:52:47;;;;;;;24.77;14.77;;;;;;;24.89;61.51;100416.03;6183427;22;20237;-80
2023/07/02 00:55:14;;;;;;;23.50;13.00;;;;;;;24.68;61.91;100381.31;6207520;22;20226;-80
2023/07/02 00:57:46;;;;;;;24.77;14.88;;;;;;;24.93;61.88;100430.78;6215297;22;20077;-82
2023/07/02 01:00:21;;;;;;;19.75;12.52;;;;;;;24.91;61.83;100424.78;6241398;22;20080;-80
2023/07/02 01:02:58;;;;;;;23.77;13.65;;;;;;;24.81;62.16;100412.81;6224175;22;20027;-81
2023/07/02 01:05:32;;;;;;;25.00;14.48;;;;;;;24.88;62.43;100413.53;6207356;22;20101;-80
2023/07/02 01:07:59;;;;;;;24.10;13.88;;;;;;;24.54;61.99;100375.31;6159616;22;20028;-82
2023/07/02 01:10:31;;;;;;;23.13;14.32;;;;;;;24.91;61.92;100424.78;6130659;22;20608;-81
2023/07/02 01:13:11;;;;;;;23.20;14.43;;;;;;;24.93;62.46;100425.38;6175096;22;20020;-81
2023/07/02 01:15:39;;;;;;;25.40;15.23;;;;;;;24.47;61.94;100347.44;6216004;22;20046;-80
2023/07/02 01:18:07;;;;;;;22.92;13.82;;;;;;;25.01;61.75;100435.03;6201871;22;20405;-81
2023/07/02 01:20:36;;;;;;;21.98;13.25;;;;;;;24.68;62.21;100376.69;6182625;22;20042;-82
2023/07/02 01:23:03;;;;;;;22.70;13.73;;;;;;;25.05;61.76;100438.09;6210805;22;20718;-82
2023/07/02 01:25:30;;;;;;;23.02;13.52;;;;;;;24.87;61.83;100407.28;6212052;22;20401;-79
2023/07/02 01:27:58;;;;;;;19.33;12.73;;;;;;;25.01;62.24;100417.94;6210427;22;20058;-80
2023/07/02 01:30:25;;;;;;;23.52;12.57;;;;;;;24.97;61.93;100412.13;6228422;22;20094;-80
2023/07/02 01:32:53;;;;;;;23.08;13.48;;;;;;;24.93;61.60;100411.78;6170215;22;20047;-80
2023/07/02 01:35:26;;;;;;;;;;;;;;;24.63;61.96;100375.78;6145355;22;20271;-82
2023/07/02 01:37:53;;;;;;;23.25;13.35;;;;;;;24.68;62.06;100400.31;6187370;22;20308;-80
2023/07/02 01:40:24;;;;;;;24.88;13.30;;;;;;;24.84;61.82;100418.63;6186325;22;20362;-81
2023/07/02 01:42:51;;;;;;;16.80;12.55;;;;;;;24.85;62.01;100433.84;6211252;22;20102;-82
2023/07/02 01:45:18;;;;;;;22.85;13.43;;;;;;;24.78;62.49;100422.28;6176746;22;20039;-82
2023/07/02 01:47:45;;;;;;;26.27;13.57;;;;;;;24.69;62.05;100423.69;6184053;22;20055;-82
2023/07/02 01:50:12;;;;;;;22.90;13.68;;;;;;;24.62;62.54;100409.41;6192143;22;20020;-81
2023/07/02 01:52:45;;;;;;;25.52;13.23;;;;;;;24.82;62.19;100442.47;6187357;22;20212;-81
2023/07/02 01:55:17;;;;;;;23.95;14.30;;;;;;;24.64;61.97;100424.41;6195285;22;20031;-82
2023/07/02 01:57:44;;;;;;;26.85;14.00;;;;;;;24.69;62.00;100434.56;6233725;22;20414;-82
2023/07/02 02:00:11;;;;;;;23.55;12.88;;;;;;;24.53;62.54;100417.88;6197586;22;20077;-80
2023/07/02 02:02:38;;;;;;;22.77;13.82;;;;;;;24.31;62.31;100392.31;6168293;23;20091;-80
2023/07/02 02:05:05;;;;;;;26.38;14.50;;;;;;;24.60;62.37;100449.50;6179127;23;20391;-80
2023/07/02 02:07:32;;;;;;;21.27;13.88;;;;;;;24.57;62.49;100428.28;6190562;23;20527;-82
2023/07/02 02:10:10;;;;;;;23.20;15.20;;;;;;;24.57;62.93;100444.56;6161909;23;20279;-80
2023/07/02 02:12:37;;;;;;;23.42;13.23;;;;;;;24.13;62.78;100368.81;6165471;23;20031;-81
2023/07/02 02:15:06;;;;;;;23.30;12.90;;;;;;;24.42;62.87;100420.53;6168852;23;20051;-80
2023/07/02 02:17:38;;;;;;;26.05;13.70;;;;;;;24.56;63.08;100448.31;6175262;23;20083;-82
2023/07/02 02:20:09;;;;;;;21.17;13.05;;;;;;;24.40;63.04;100415.34;6173204;23;20028;-81
2023/07/02 02:22:36;;;;;;;21.75;12.77;;;;;;;24.57;63.06;100439.97;6185239;23;20131;-81
2023/07/02 02:25:03;;;;;;;20.80;12.85;;;;;;;24.54;62.82;100440.44;6156454;23;20388;-79
2023/07/02 02:27:31;;;;;;;22.95;13.18;;;;;;;24.54;62.78;100429.56;6165994;23;20021;-82
2023/07/02 02:29:58;;;;;;;21.95;13.70;;;;;;;24.33;62.85;100405.66;6167331;23;20095;-80
2023/07/02 02:32:25;;;;;;;24.95;13.15;;;;;;;24.53;62.90;100428.72;6168379;23;20420;-80
2023/07/02 02:34:56;;;;;;;20.80;12.77;;;;;;;24.42;62.70;100410.53;6200020;23;20499;-81
2023/07/02 02:37:33;;;;;;;19.30;12.70;;;;;;;24.23;62.87;100400.81;6185649;23;20025;-80
2023/07/02 02:39:59;;;;;;;21.07;12.97;;;;;;;24.28;62.58;100401.75;6166955;23;20143;-81
2023/07/02 02:42:31;;;;;;;20.67;12.13;;;;;;;24.44;62.90;100424.69;6169699;23;20084;-82
2023/07/02 02:44:58;;;;;;;20.05;12.45;;;;;;;24.21;63.27;100402.91;6163512;23;20024;-82
2023/07/02 02:47:25;;;;;;;21.67;13.52;;;;;;;24.44;62.92;100424.69;6166457;23;20468;-78
2023/07/02 02:49:51;;;;;;;25.27;13.65;;;;;;;24.35;62.96;100423.34;6172855;23;20409;-80
2023/07/02 02:52:18;;;;;;;19.02;12.27;;;;;;;24.24;63.56;100410.56;6176045;23;20025;-80
2023/07/02 02:54:46;;;;;;;19.35;12.02;;;;;;;24.49;63.14;100446.56;6175019;23;20025;-80
2023/07/02 02:57:13;;;;;;;23.65;13.45;;;;;;;24.37;62.71;100423.97;6175363;23;20252;-81
2023/07/02 02:59:40;;;;;;;20.23;12.88;;;;;;;24.42;63.00;100445.78;6149923;23;20283;-81
2023/07/02 03:02:07;;;;;;;21.25;12.88;;;;;;;24.43;63.40;100455.56;6164726;23;20067;-80
2023/07/02 03:04:35;;;;;;;23.40;13.63;;;;;;;24.12;63.34;100409.72;6174785;23;20044;-80
2023/07/02 03:07:02;;;;;;;22.45;14.02;;;;;;;24.36;63.42;100454.03;6164854;23;20326;-80
2023/07/02 03:09:34;;;;;;;25.08;13.52;;;;;;;24.51;64.07;100455.25;6155078;23;20326;-81
2023/07/02 03:12:00;;;;;;;29.55;15.30;;;;;;;24.46;63.33;100449.69;6165960;23;20020;-80
2023/07/02 03:14:27;;;;;;;25.17;15.27;;;;;;;24.53;63.49;100453.16;6141035;23;20029;-80
2023/07/02 03:16:57;;;;;;;23.52;15.00;;;;;;;24.68;63.12;100443.75;6174745;23;20123;-80
2023/07/02 03:19:26;;;;;;;29.40;17.17;;;;;;;24.59;62.79;100453.28;6174177;23;20090;-81
2023/07/02 03:21:53;;;;;;;34.47;16.77;;;;;;;24.63;62.96;100454.47;6136309;23;20074;-80
2023/07/02 03:24:21;;;;;;;25.67;15.88;;;;;;;24.30;63.12;100434.06;6133939;23;20023;-82
2023/07/02 03:26:48;;;;;;;30.58;18.25;;;;;;;24.38;63.50;100463.56;6155179;23;20276;-81
2023/07/02 03:29:20;;;;;;;33.75;18.33;;;;;;;24.21;64.03;100465.28;6154445;23;20460;-81
2023/07/02 03:31:47;;;;;;;30.35;18.75;;;;;;;23.96;64.54;100455.41;6170428;23;20020;-78
2023/07/02 03:34:17;;;;;;;34.83;18.27;;;;;;;23.87;64.95;100451.34;6173628;23;20021;-81
2023/07/02 03:36:44;;;;;;;29.23;19.40;;;;;;;23.64;65.19;100424.88;6144361;23;20441;-81
2023/07/02 03:39:17;;;;;;;30.60;19.45;;;;;;;23.68;65.49;100443.19;6168658;23;20100;-82
2023/07/02 03:41:46;;;;;;;31.08;18.98;;;;;;;23.71;65.68;100463.56;6160032;23;20344;-82
2023/07/02 03:44:16;;;;;;;30.17;19.30;;;;;;;23.60;66.06;100442.69;6146253;23;20083;-81
2023/07/02 03:46:47;;;;;;;35.65;19.60;;;;;;;23.71;66.03;100455.44;6177260;23;20024;-82
2023/07/02 03:49:19;;;;;;;31.30;18.70;;;;;;;23.76;66.15;100481.91;6144823;23;20211;-82
2023/07/02 03:51:48;;;;;;;31.15;19.50;;;;;;;23.78;66.18;100477.09;6168126;23;20564;-82
2023/07/02 03:54:15;;;;;;;36.67;22.15;;;;;;;23.58;65.72;100418.50;6138203;23;20024;-81
2023/07/02 03:56:49;;;;;;;37.92;22.35;;;;;;;23.97;65.80;100489.56;6136288;23;20383;-80
2023/07/02 03:59:23;;;;;;;34.13;22.23;;;;;;;23.49;65.84;100411.72;6127390;23;20016;-81
2023/07/02 04:01:51;;;;;;;41.70;24.08;;;;;;;23.78;66.18;100468.97;6138316;23;20063;-82
2023/07/02 04:04:17;;;;;;;35.83;23.90;;;;;;;23.02;66.75;100362.69;6139374;23;20025;-82
2023/07/02 04:06:47;;;;;;;39.67;25.48;;;;;;;23.57;66.50;100468.34;6161535;23;20021;-82
2023/07/02 04:09:18;;;;;;;;;;;;;;;23.61;67.64;100502.03;6141845;23;20016;-83
2023/07/02 04:11:49;;;;;;;37.90;21.95;;;;;;;22.74;67.50;100360.41;6145755;23;19919;-82
2023/07/02 04:14:17;;;;;;;37.70;26.02;;;;;;;23.63;67.42;100489.09;6146614;23;20020;-82
2023/07/02 04:16:45;;;;;;;29.15;19.90;;;;;;;23.44;67.68;100471.19;6175365;23;20028;-82
2023/07/02 04:19:11;;;;;;;40.25;26.40;;;;;;;23.61;67.59;100491.19;6165029;23;20024;-83
2023/07/02 04:21:43;;;;;;;44.05;28.27;;;;;;;23.36;68.30;100469.59;6164408;23;20694;-82
2023/07/02 04:24:16;;;;;;;45.38;27.88;;;;;;;23.57;67.63;100490.03;6175964;23;20519;-80
2023/07/02 04:26:44;;;;;;;39.65;25.98;;;;;;;23.66;67.52;100515.75;6168834;23;20555;-83
2023/07/02 04:29:31;;;;;;;42.42;26.55;;;;;;;23.41;68.37;100498.72;6171755;23;20363;-80
2023/07/02 04:31:57;;;;;;;41.03;26.98;;;;;;;23.32;68.66;100479.22;6159926;23;20032;-82
2023/07/02 04:34:27;;;;;;;48.70;27.75;;;;;;;23.64;68.36;100517.03;6144961;23;20784;-82
2023/07/02 04:37:03;;;;;;;47.60;27.75;;;;;;;23.71;68.06;100509.66;6157367;23;20037;-83
2023/07/02 04:39:41;;;;;;;34.75;24.23;;;;;;;23.84;68.01;100531.22;6144930;23;20026;-83
2023/07/02 04:42:31;;;;;;;43.13;28.05;;;;;;;23.95;67.61;100529.63;6169526;23;20043;-82
2023/07/02 04:45:02;;;;;;;49.95;30.08;;;;;;;23.98;67.52;100537.34;6155347;23;20075;-83
2023/07/02 04:47:30;;;;;;;;;;;;;;;23.93;67.73;100534.44;6177884;23;20024;-82
2023/07/02 04:49:58;;;;;;;46.28;28.50;;;;;;;23.91;67.89;100533.88;6165922;23;19978;-80
2023/07/02 04:52:30;;;;;;;28.52;18.98;;;;;;;23.79;67.56;100492.31;6161563;23;20126;-83
2023/07/02 04:54:58;;;;;;;29.95;19.73;;;;;;;24.12;67.27;100535.28;6163264;23;20025;-81
2023/07/02 04:57:28;;;;;;;41.78;28.63;;;;;;;24.00;67.24;100510.81;6169521;23;20024;-80
2023/07/02 05:00:12;;;;;;;42.30;28.33;;;;;;;24.16;66.85;100516.69;4929139;27;3982981;-81
2023/07/02 05:02:42;;;;;;;46.78;28.58;;;;;;;24.04;66.66;100503.06;5062920;28;20691;-80
2023/07/02 05:05:09;;;;;;;45.13;27.00;;;;;;;24.03;67.00;100515.78;5054643;28;20141;-80
2023/07/02 05:07:36;;;;;;;43.55;26.90;;;;;;;24.14;67.31;100537.78;5062002;28;20456;-81
2023/07/02 05:10:08;;;;;;;39.78;24.80;;;;;;;23.45;67.00;100402.41;5018433;28;20989;-81
2023/07/02 05:12:45;;;;;;;39.67;25.77;;;;;;;24.34;66.67;100538.34;5033895;28;20047;-80
2023/07/02 05:15:12;;;;;;;41.35;25.25;;;;;;;24.34;66.60;100523.94;5061926;28;20078;-82
2023/07/02 05:17:38;;;;;;;45.40;26.60;;;;;;;24.37;66.25;100501.78;5046803;28;20055;-82
2023/07/02 05:20:06;;;;;;;41.28;26.27;;;;;;;24.12;66.12;100483.75;5047629;28;20206;-81
2023/07/02 05:22:33;;;;;;;25.13;17.38;;;;;;;24.70;65.93;100542.06;5039678;28;20243;-82
2023/07/02 05:25:00;;;;;;;38.30;23.88;;;;;;;24.55;65.48;100509.09;5040164;28;20226;-81
2023/07/02 05:27:26;;;;;;;28.98;19.55;;;;;;;24.92;65.20;100561.34;5052520;28;20040;-80
2023/07/02 05:29:55;;;;;;;39.25;24.20;;;;;;;24.72;64.47;100518.22;5024935;28;20134;-82
2023/07/02 05:32:21;;;;;;;32.97;22.25;;;;;;;24.89;65.41;100551.78;5045484;28;20522;-82
2023/07/02 05:34:51;;;;;;;34.78;22.35;;;;;;;24.88;65.13;100533.00;5036853;28;20078;-80
2023/07/02 05:37:23;;;;;;;31.95;20.02;;;;;;;24.85;65.05;100545.16;5046781;28;20055;-82
2023/07/02 05:39:59;;;;;;;36.58;23.98;;;;;;;24.78;65.25;100544.44;5052843;28;20098;-82
2023/07/02 05:42:30;;;;;;;34.47;23.10;;;;;;;24.95;65.03;100555.44;5062788;28;20490;-82
2023/07/02 05:45:00;;;;;;;38.38;22.70;;;;;;;25.00;65.18;100562.91;5044095;28;20298;-82
2023/07/02 05:47:28;;;;;;;35.80;23.40;;;;;;;24.66;64.69;100509.13;5057862;28;20108;-82
2023/07/02 05:50:02;;;;;;;34.65;23.83;;;;;;;24.63;64.73;100489.75;5060619;28;20476;-81
2023/07/02 05:52:29;;;;;;;35.13;24.10;;;;;;;24.73;65.04;100504.44;5051747;28;20521;-81
2023/07/02 05:54:56;;;;;;;34.83;22.85;;;;;;;25.10;65.25;100555.03;5069506;28;20438;-79
2023/07/02 05:57:22;;;;;;;27.63;19.40;;;;;;;25.11;64.63;100545.81;5052329;28;20496;-82
2023/07/02 05:59:54;;;;;;;33.05;22.15;;;;;;;25.21;64.21;100548.81;5025984;28;20387;-82
2023/07/02 06:02:30;;;;;;;32.97;20.20;;;;;;;25.37;64.38;100552.72;5013708;28;20501;-81
2023/07/02 06:05:04;;;;;;;25.48;15.70;;;;;;;25.32;62.70;100539.03;5023394;28;20040;-82
2023/07/02 06:07:31;;;;;;;23.77;15.68;;;;;;;25.54;62.95;100552.84;5038640;28;20044;-81
2023/07/02 06:10:02;;;;;;;21.63;14.30;;;;;;;25.51;62.47;100564.16;5040201;28;20099;-83
2023/07/02 06:12:30;;;;;;;21.48;14.10;;;;;;;24.68;62.39;100419.31;5036543;28;20255;-82
2023/07/02 06:15:03;;;;;;;16.27;12.02;;;;;;;25.49;62.25;100533.72;5040772;28;20165;-82
2023/07/02 06:17:30;;;;;;;20.73;12.18;;;;;;;25.47;61.54;100530.41;5039558;28;20048;-81
2023/07/02 06:20:00;;;;;;;19.75;11.77;;;;;;;25.52;60.70;100544.09;5037286;28;20127;-82
2023/07/02 06:22:29;;;;;;;16.48;11.32;;;;;;;25.45;60.92;100527.91;5043481;28;20500;-81
2023/07/02 06:24:58;;;;;;;15.35;11.68;;;;;;;25.68;61.04;100548.81;5024422;28;20052;-82
2023/07/02 06:27:28;;;;;;;18.25;11.60;;;;;;;25.27;60.94;100470.97;5039552;28;20044;-82
2023/07/02 06:29:56;;;;;;;16.38;10.32;;;;;;;25.83;59.78;100547.47;5033979;28;20044;-82
2023/07/02 06:32:22;;;;;;;17.40;10.57;;;;;;;25.99;59.81;100571.25;5038067;28;20055;-82
2023/07/02 06:34:49;;;;;;;19.40;11.38;;;;;;;25.90;58.79;100534.63;5045159;28;20116;-82
2023/07/02 06:37:16;;;;;;;15.93;10.73;;;;;;;26.03;58.65;100553.41;5047489;28;20070;-81
2023/07/02 06:39:43;;;;;;;18.05;10.43;;;;;;;26.20;58.53;100562.47;5047458;28;20393;-80
2023/07/02 06:42:10;;;;;;;15.63;10.20;;;;;;;26.26;57.51;100568.84;5059602;28;20478;-81
2023/07/02 06:44:42;;;;;;;15.63;11.55;;;;;;;26.04;58.03;100543.34;5041187;28;20058;-80
2023/07/02 06:47:09;;;;;;;13.80;10.57;;;;;;;25.91;57.93;100509.09;5032648;28;20430;-83
2023/07/02 06:49:36;;;;;;;16.10;11.70;;;;;;;26.11;58.10;100550.31;5038865;28;20775;-80
2023/07/02 06:52:05;;;;;;;16.15;10.05;;;;;;;26.25;58.19;100564.47;5048892;28;20040;-80
2023/07/02 06:54:35;;;;;;;15.23;10.95;;;;;;;26.24;57.37;100557.38;5058617;28;20549;-82
2023/07/02 06:57:04;;;;;;;20.15;11.88;;;;;;;26.18;58.04;100553.72;5052023;28;20047;-82
2023/07/02 06:59:31;;;;;;;21.40;11.93;;;;;;;25.65;58.70;100467.72;5023302;28;20498;-83
2023/07/02 07:01:58;;;;;;;19.02;11.60;;;;;;;26.40;58.70;100575.66;5043280;28;20046;-81
2023/07/02 07:04:29;;;;;;;18.75;11.23;;;;;;;26.20;58.82;100537.97;5046861;28;20490;-83
2023/07/02 07:06:56;;;;;;;16.30;11.00;;;;;;;26.04;57.62;100497.94;5038254;28;20121;-80
2023/07/02 07:09:23;;;;;;;16.60;10.43;;;;;;;26.51;57.58;100575.88;5049994;28;20144;-82
2023/07/02 07:11:50;;;;;;;18.13;10.48;;;;;;;26.47;58.24;100550.19;5054767;28;20067;-82
2023/07/02 07:14:16;;;;;;;16.92;11.27;;;;;;;26.56;57.90;100549.59;5036355;28;20422;-81
2023/07/02 07:16:43;;;;;;;12.75;9.80;;;;;;;26.62;57.50;100558.69;5036533;28;20363;-79
2023/07/02 07:19:15;;;;;;;14.60;10.68;;;;;;;26.78;57.01;100584.31;5020200;28;20051;-82
2023/07/02 07:21:45;;;;;;;16.88;11.63;;;;;;;26.72;56.71;100566.22;5017980;28;20402;-79
2023/07/02 07:24:16;;;;;;;19.08;11.30;;;;;;;26.67;56.69;100560.66;5000105;28;20083;-83
2023/07/02 07:26:45;;;;;;;14.48;11.00;;;;;;;26.74;57.00;100545.84;5034974;28;20097;-81
2023/07/02 07:29:12;;;;;;;13.00;10.57;;;;;;;26.92;56.00;100520.28;5048166;28;20048;-82
2023/07/02 07:31:43;;;;;;;15.68;10.52;;;;;;;27.17;56.52;100568.09;5037549;28;20070;-82
2023/07/02 07:34:13;;;;;;;21.02;13.48;;;;;;;26.88;56.72;100545.53;5035682;28;20040;-83
2023/07/02 07:36:40;;;;;;;21.38;13.27;;;;;;;26.83;57.82;100570.78;5035478;28;20040;-82
2023/07/02 07:39:11;;;;;;;20.55;12.88;;;;;;;26.89;57.83;100577.94;4996361;28;20724;-82
2023/07/02 07:41:41;;;;;;;21.13;13.85;;;;;;;26.91;57.87;100562.19;4996032;28;20352;-80
2023/07/02 07:44:10;;;;;;;18.58;12.68;;;;;;;27.02;58.08;100585.84;5033508;28;20187;-80
2023/07/02 07:46:39;;;;;;;18.17;12.73;;;;;;;26.98;57.43;100573.75;5048181;28;20060;-81
2023/07/02 07:49:08;;;;;;;19.10;13.30;;;;;;;26.98;57.74;100568.31;5032355;28;20173;-82
2023/07/02 07:51:38;;;;;;;25.70;13.68;;;;;;;27.26;57.41;100583.00;5053974;28;20390;-80
2023/07/02 07:54:06;;;;;;;23.77;13.77;;;;;;;27.16;56.88;100574.59;5048699;28;20256;-82
2023/07/02 07:56:37;;;;;;;20.17;12.27;;;;;;;27.11;56.52;100580.78;5044664;28;20130;-80
2023/07/02 07:59:04;;;;;;;21.05;12.88;;;;;;;27.15;57.19;100581.13;5027143;28;20143;-82
2023/07/02 08:01:38;;;;;;;19.30;13.85;;;;;;;27.34;55.99;100589.94;4995430;28;20293;-83
2023/07/02 08:04:20;;;;;;;21.42;14.80;;;;;;;27.18;56.08;100562.38;4994334;28;20240;-83
2023/07/02 08:06:56;;;;;;;18.52;12.93;;;;;;;27.20;56.81;100571.16;5018306;28;20818;-81
2023/07/02 08:09:27;;;;;;;20.90;13.75;;;;;;;27.49;56.15;100596.44;5045556;28;20052;-80
2023/07/02 08:11:56;;;;;;;21.65;14.93;;;;;;;27.52;55.45;100599.75;5059377;28;20055;-80
2023/07/02 08:14:23;;;;;;;21.48;13.43;;;;;;;27.59;55.60;100600.41;5041269;28;20044;-80
2023/07/02 08:16:53;;;;;;;19.80;14.43;;;;;;;27.49;55.19;100587.44;5039307;28;20058;-81
2023/07/02 08:19:21;;;;;;;20.00;14.00;;;;;;;27.38;55.06;100566.53;5029303;28;20464;-82
2023/07/02 08:21:48;;;;;;;20.98;13.85;;;;;;;27.55;55.64;100599.22;5038153;28;20070;-80
2023/07/02 08:24:24;;;;;;;20.85;13.35;;;;;;;27.45;54.97;100572.63;5007847;28;20060;-81
2023/07/02 08:26:54;;;;;;;18.95;12.63;;;;;;;27.64;55.63;100600.47;5028936;28;20133;-82
2023/07/02 08:29:21;;;;;;;22.00;14.48;;;;;;;27.69;55.16;100595.09;5025793;28;20583;-80
2023/07/02 08:31:48;;;;;;;19.90;14.25;;;;;;;27.78;54.66;100593.59;5010409;28;20478;-81
2023/07/02 08:34:19;;;;;;;20.38;14.15;;;;;;;27.75;53.88;100572.28;5019088;28;20136;-82
2023/07/02 08:36:49;;;;;;;19.60;14.43;;;;;;;27.64;53.55;100570.47;5023647;28;20459;-80
2023/07/02 08:39:16;;;;;;;18.27;13.40;;;;;;;27.76;54.83;100595.75;5035454;28;20048;-82
2023/07/02 08:41:50;;;;;;;20.05;12.93;;;;;;;27.61;54.55;100571.81;4988149;28;20350;-82
2023/07/02 08:44:20;;;;;;;22.25;14.77;;;;;;;27.74;53.92;100592.44;5015860;28;20041;-81
2023/07/02 08:46:50;;;;;;;19.15;13.07;;;;;;;27.70;54.37;100562.13;5019302;28;20058;-81
2023/07/02 08:49:17;;;;;;;16.65;12.57;;;;;;;28.10;53.72;100582.03;5018386;28;20086;-83
2023/07/02 08:51:45;;;;;;;25.98;15.63;;;;;;;28.08;53.37;100586.94;5024158;28;20052;-81
2023/07/02 08:54:12;;;;;;;15.90;12.23;;;;;;;28.14;54.16;100602.31;5026951;28;20521;-81
2023/07/02 08:56:39;;;;;;;17.05;12.35;;;;;;;28.19;53.31;100588.72;5021533;28;20136;-79
2023/07/02 08:59:09;;;;;;;22.77;15.13;;;;;;;28.04;53.04;100594.00;5031305;28;20332;-81
2023/07/02 09:01:47;;;;;;;16.60;12.57;;;;;;;28.16;53.58;100594.69;5035539;28;20070;-82
2023/07/02 09:04:26;;;;;;;21.50;14.80;;;;;;;27.68;53.92;100588.81;5026367;28;20051;-80
2023/07/02 09:07:09;;;;;;;19.88;12.57;;;;;;;27.57;54.46;100550.75;5038372;28;20099;-81
2023/07/02 09:09:50;;;;;;;19.95;14.43;;;;;;;27.68;54.23;100588.00;5035845;28;20066;-81
2023/07/02 09:12:28;;;;;;;18.67;14.35;;;;;;;27.75;53.02;100572.28;5040881;28;20136;-82
2023/07/02 09:15:04;;;;;;;22.48;15.88;;;;;;;27.79;52.86;100578.88;5034956;28;20079;-81
2023/07/02 09:17:39;;;;;;;19.15;13.77;;;;;;;27.67;53.97;100575.41;5041582;28;20386;-82
2023/07/02 09:20:08;;;;;;;18.55;13.20;;;;;;;27.74;53.93;100565.16;5034487;28;20075;-80
2023/07/02 09:22:36;;;;;;;23.02;15.05;;;;;;;27.71;54.05;100603.84;5003666;28;20475;-81
2023/07/02 09:25:04;;;;;;;18.33;14.38;;;;;;;27.87;54.31;100600.31;5024538;28;20044;-81
2023/07/02 09:27:41;;;;;;;19.63;12.73;;;;;;;27.95;53.13;100568.22;5026263;28;20493;-82
2023/07/02 09:30:15;;;;;;;15.15;11.88;;;;;;;27.96;54.07;100603.41;5024933;28;20335;-81
2023/07/02 09:32:44;;;;;;;17.80;13.05;;;;;;;27.53;54.95;100601.41;5032255;28;20078;-83
2023/07/02 09:35:12;;;;;;;16.08;12.82;;;;;;;27.59;54.81;100589.50;5059492;28;20511;-80
2023/07/02 09:37:46;;;;;;;17.05;12.75;;;;;;;27.90;54.50;100597.06;5060454;28;20060;-83
2023/07/02 09:40:13;;;;;;;16.15;13.02;;;;;;;27.77;54.53;100578.31;5028755;28;20069;-81
2023/07/02 09:42:40;;;;;;;21.30;12.50;;;;;;;28.03;53.91;100590.41;5030595;28;20070;-82
2023/07/02 09:45:10;;;;;;;17.30;13.32;;;;;;;28.20;53.31;100590.34;5021700;28;20044;-83
2023/07/02 09:47:45;;;;;;;17.50;12.23;;;;;;;28.28;52.67;100587.19;5043106;28;20127;-83
2023/07/02 09:50:19;;;;;;;19.98;14.80;;;;;;;28.24;52.41;100591.50;5049467;28;20055;-83
2023/07/02 09:52:46;;;;;;;18.23;13.27;;;;;;;27.53;52.43;100479.53;5034716;28;20344;-81
2023/07/02 09:55:14;;;;;;;16.23;12.38;;;;;;;28.45;51.20;100583.56;5033528;28;20053;-83
2023/07/02 09:57:46;;;;;;;17.02;12.85;;;;;;;28.36;51.99;100576.91;5013501;28;20131;-83
2023/07/02 10:00:14;;;;;;;18.05;13.90;;;;;;;27.38;52.23;100420.19;5020895;28;20065;-82
2023/07/02 10:02:49;;;;;;;15.52;12.90;;;;;;;28.80;51.16;100604.19;5016095;28;20087;-82
2023/07/02 10:05:29;;;;;;;17.65;12.43;;;;;;;29.06;50.51;100597.06;5021954;28;20044;-82
2023/07/02 10:08:22;;;;;;;15.50;11.90;;;;;;;28.69;51.01;100587.69;5025510;28;20390;-82
2023/07/02 10:10:50;;;;;;;14.75;11.63;;;;;;;28.67;51.55;100589.84;5025752;28;20341;-81
2023/07/02 10:13:28;;;;;;;14.25;11.80;;;;;;;28.90;51.92;100590.63;5035018;28;20051;-81
2023/07/02 10:16:05;;;;;;;17.25;14.05;;;;;;;28.65;50.39;100583.00;5021841;28;20085;-83
2023/07/02 10:18:34;;;;;;;13.73;11.30;;;;;;;28.79;51.56;100586.13;4993558;28;20079;-81
2023/07/02 10:21:16;;;;;;;17.30;12.88;;;;;;;29.21;50.40;100590.94;5027761;28;20898;-81
2023/07/02 10:23:44;;;;;;;20.63;12.07;;;;;;;29.17;50.09;100583.22;5020376;28;20048;-80
2023/07/02 10:26:19;;;;;;;19.65;12.98;;;;;;;28.95;50.80;100574.28;5035411;28;20059;-80
2023/07/02 10:28:59;;;;;;;18.83;13.20;;;;;;;28.43;51.63;100558.44;5046105;28;20059;-82
2023/07/02 10:31:26;;;;;;;22.27;12.38;;;;;;;28.44;51.38;100546.41;5025430;28;20126;-80
2023/07/02 10:33:56;;;;;;;21.40;14.55;;;;;;;28.05;52.13;100532.88;5046185;28;20252;-81
2023/07/02 10:36:26;;;;;;;18.30;15.43;;;;;;;28.33;51.57;100551.78;5060958;28;20056;-80
2023/07/02 10:39:00;;;;;;;19.80;14.07;;;;;;;28.68;50.74;100561.44;5049020;28;20565;-81
2023/07/02 10:41:29;;;;;;;13.77;11.40;;;;;;;29.03;50.73;100567.50;5055648;28;20050;-82
2023/07/02 10:44:12;;;;;;;21.77;11.95;;;;;;;29.00;50.48;100552.44;5047259;28;20279;-82
2023/07/02 10:46:46;;;;;;;19.13;12.50;;;;;;;29.12;50.32;100588.66;5052332;28;20113;-81
2023/07/02 10:49:22;;;;;;;15.60;13.38;;;;;;;28.56;50.86;100574.44;5040749;28;20105;-82
2023/07/02 10:51:57;;;;;;;16.25;13.40;;;;;;;28.90;50.72;100590.63;5055843;28;20137;-82
2023/07/02 10:54:25;;;;;;;20.73;14.02;;;;;;;28.87;50.52;100582.94;5047312;28;20397;-81
2023/07/02 10:56:58;;;;;;;16.02;12.18;;;;;;;28.99;50.11;100548.09;5044518;28;20054;-81
2023/07/02 10:59:28;;;;;;;19.92;13.23;;;;;;;28.95;50.42;100527.81;5055613;28;20058;-82
2023/07/02 11:02:01;;;;;;;19.15;12.30;;;;;;;29.29;49.55;100557.63;5027505;28;20147;-81
2023/07/02 11:04:29;;;;;;;17.23;13.15;;;;;;;28.87;49.84;100583.75;5027861;28;20044;-81
2023/07/02 11:06:56;;;;;;;22.10;13.52;;;;;;;28.42;50.04;100447.56;5044524;28;20048;-80
2023/07/02 11:09:29;;;;;;;18.33;13.07;;;;;;;29.26;49.74;100580.03;5044262;28;20051;-81
2023/07/02 11:11:58;;;;;;;16.25;14.45;;;;;;;28.63;51.15;100563.31;5046233;28;20141;-80
2023/07/02 11:14:35;;;;;;;16.33;14.00;;;;;;;28.60;50.45;100555.66;5032719;28;20048;-81
2023/07/02 11:17:06;;;;;;;15.88;12.95;;;;;;;28.85;50.81;100546.88;5042679;28;20052;-83
2023/07/02 11:19:36;;;;;;;16.38;12.98;;;;;;;29.09;49.88;100544.66;5054196;28;20494;-81
2023/07/02 11:22:06;;;;;;;18.92;13.27;;;;;;;29.01;49.42;100485.81;5039382;28;20520;-81